BAW3455 EGLL-EGJJ
Flight info
| Callsign | BAW3455 |
|---|---|
| Flight time | 0h 44m |
| Altitude | 23000 |
| Route | GASGU2J GASGU N866 SAM/N0375F220 N63 LELNA LELNA1K |
| Aircraft | B772/H-SDE2E3FGHIJ5LORVWXY/LB1D1 |
Departure
| Time | 2026-05-06 08:02 |
|---|---|
| Airport | London Heathrow Airport (EGLL) |
Arrival
| Time | 2026-05-06 08:47 |
|---|---|
| Airport | Jersey Airport (EGJJ) |
| Time | Latitude | Longitude | Altitude | Speed | Heading |
|---|---|---|---|---|---|
| 2026-05-06 07:22 | 51.47014 | -0.46544 | 93 ft | 0 kts | 57° |
| 2026-05-06 07:49 | 51.47008 | -0.46560 | 93 ft | 4 kts | 57° |
| 2026-05-06 07:49 | 51.46994 | -0.46596 | 93 ft | 4 kts | 57° |
| 2026-05-06 07:49 | 51.46984 | -0.46626 | 91 ft | 4 kts | 96° |
| 2026-05-06 07:50 | 51.46995 | -0.46661 | 91 ft | 4 kts | 137° |
| 2026-05-06 07:50 | 51.47006 | -0.46675 | 93 ft | 0 kts | 144° |
| 2026-05-06 07:56 | 51.46995 | -0.46662 | 93 ft | 8 kts | 140° |
| 2026-05-06 07:56 | 51.46959 | -0.46625 | 93 ft | 15 kts | 147° |
| 2026-05-06 07:57 | 51.46945 | -0.46610 | 92 ft | 17 kts | 147° |
| 2026-05-06 07:57 | 51.46831 | -0.46484 | 94 ft | 20 kts | 148° |
| 2026-05-06 07:57 | 51.46702 | -0.46428 | 94 ft | 15 kts | 189° |
| 2026-05-06 07:58 | 51.46658 | -0.46545 | 96 ft | 15 kts | 256° |
| 2026-05-06 07:58 | 51.46658 | -0.46721 | 96 ft | 13 kts | 271° |
| 2026-05-06 07:58 | 51.46655 | -0.46789 | 95 ft | 7 kts | 272° |
| 2026-05-06 07:58 | 51.46659 | -0.46909 | 95 ft | 14 kts | 270° |
| 2026-05-06 07:59 | 51.46658 | -0.47107 | 92 ft | 21 kts | 269° |
| 2026-05-06 07:59 | 51.46654 | -0.47364 | 85 ft | 25 kts | 271° |
| 2026-05-06 07:59 | 51.46656 | -0.47665 | 88 ft | 29 kts | 268° |
| 2026-05-06 07:59 | 51.46654 | -0.47985 | 91 ft | 30 kts | 270° |
| 2026-05-06 08:00 | 51.46654 | -0.48325 | 95 ft | 31 kts | 270° |
| 2026-05-06 08:00 | 51.46647 | -0.48663 | 95 ft | 28 kts | 266° |
| 2026-05-06 08:00 | 51.46585 | -0.48781 | 92 ft | 14 kts | 193° |
| 2026-05-06 08:00 | 51.46515 | -0.48770 | 92 ft | 0 kts | 152° |
| 2026-05-06 08:01 | 51.46507 | -0.48760 | 94 ft | 3 kts | 143° |
| 2026-05-06 08:01 | 51.46479 | -0.48692 | 94 ft | 13 kts | 107° |
| 2026-05-06 08:01 | 51.46478 | -0.48498 | 91 ft | 7 kts | 89° |
| 2026-05-06 08:01 | 51.46478 | -0.48496 | 91 ft | 0 kts | 89° |
| 2026-05-06 08:02 | 51.46478 | -0.48489 | 91 ft | 5 kts | 89° |
| 2026-05-06 08:02 | 51.46480 | -0.48086 | 89 ft | 87 kts | 89° |
| 2026-05-06 08:02 | 51.46484 | -0.46557 | 225 ft | 170 kts | 89° |
| 2026-05-06 08:02 | 51.46456 | -0.44735 | 1642 ft | 158 kts | 84° |
| 2026-05-06 08:03 | 51.46543 | -0.42894 | 2728 ft | 178 kts | 81° |
| 2026-05-06 08:03 | 51.46317 | -0.40790 | 3001 ft | 215 kts | 115° |
| 2026-05-06 08:03 | 51.45381 | -0.38758 | 3336 ft | 236 kts | 123° |
| 2026-05-06 08:03 | 51.44394 | -0.36586 | 3978 ft | 247 kts | 121° |
| 2026-05-06 08:04 | 51.43275 | -0.34380 | 4488 ft | 267 kts | 136° |
| 2026-05-06 08:04 | 51.41605 | -0.32905 | 5212 ft | 282 kts | 164° |
| 2026-05-06 08:04 | 51.39644 | -0.32664 | 5875 ft | 285 kts | 192° |
| 2026-05-06 08:04 | 51.37849 | -0.33866 | 5994 ft | 281 kts | 221° |
| 2026-05-06 08:05 | 51.36454 | -0.35975 | 6008 ft | 278 kts | 228° |
| 2026-05-06 08:05 | 51.35048 | -0.38117 | 6009 ft | 279 kts | 226° |
| 2026-05-06 08:05 | 51.33619 | -0.40193 | 6020 ft | 278 kts | 225° |
| 2026-05-06 08:05 | 51.32186 | -0.42260 | 6015 ft | 275 kts | 227° |
| 2026-05-06 08:06 | 51.30972 | -0.44593 | 5990 ft | 271 kts | 241° |
| 2026-05-06 08:06 | 51.30111 | -0.47201 | 5993 ft | 266 kts | 250° |
| 2026-05-06 08:06 | 51.29505 | -0.49964 | 6001 ft | 262 kts | 257° |
| 2026-05-06 08:06 | 51.29010 | -0.52755 | 5999 ft | 261 kts | 258° |
| 2026-05-06 08:07 | 51.28519 | -0.55565 | 6003 ft | 262 kts | 258° |
| 2026-05-06 08:07 | 51.28019 | -0.58372 | 6001 ft | 264 kts | 257° |
| 2026-05-06 08:07 | 51.27484 | -0.61182 | 6002 ft | 265 kts | 256° |
| 2026-05-06 08:07 | 51.26937 | -0.64008 | 6007 ft | 267 kts | 256° |
| 2026-05-06 08:08 | 51.26385 | -0.66850 | 5994 ft | 268 kts | 256° |
| 2026-05-06 08:08 | 51.25833 | -0.69692 | 6002 ft | 268 kts | 256° |
| 2026-05-06 08:08 | 51.25283 | -0.72525 | 6001 ft | 268 kts | 256° |
| 2026-05-06 08:08 | 51.24730 | -0.75367 | 6002 ft | 268 kts | 256° |
| 2026-05-06 08:09 | 51.24176 | -0.78216 | 6007 ft | 268 kts | 256° |
| 2026-05-06 08:09 | 51.23622 | -0.81054 | 6001 ft | 268 kts | 256° |
| 2026-05-06 08:09 | 51.23070 | -0.83892 | 5994 ft | 267 kts | 256° |
| 2026-05-06 08:09 | 51.22516 | -0.86735 | 6294 ft | 268 kts | 256° |
| 2026-05-06 08:10 | 51.21962 | -0.89572 | 6850 ft | 279 kts | 256° |
| 2026-05-06 08:10 | 51.21380 | -0.92539 | 6734 ft | 276 kts | 256° |
| 2026-05-06 08:10 | 51.20773 | -0.95388 | 6949 ft | 269 kts | 247° |
| 2026-05-06 08:10 | 51.19620 | -0.97786 | 7739 ft | 277 kts | 227° |
| 2026-05-06 08:11 | 51.18199 | -0.99944 | 8572 ft | 285 kts | 226° |
| 2026-05-06 08:11 | 51.16833 | -1.02017 | 9466 ft | 288 kts | 226° |
| 2026-05-06 08:11 | 51.15369 | -1.04239 | 10305 ft | 295 kts | 226° |
| 2026-05-06 08:11 | 51.13823 | -1.06595 | 10616 ft | 322 kts | 226° |
| 2026-05-06 08:12 | 51.12156 | -1.09141 | 11232 ft | 337 kts | 226° |
| 2026-05-06 08:12 | 51.10443 | -1.11755 | 12184 ft | 343 kts | 225° |
| 2026-05-06 08:12 | 51.08709 | -1.14397 | 13292 ft | 346 kts | 225° |
| 2026-05-06 08:12 | 51.06962 | -1.17059 | 14335 ft | 349 kts | 225° |
| 2026-05-06 08:13 | 51.05202 | -1.19743 | 15327 ft | 352 kts | 225° |
| 2026-05-06 08:13 | 51.03428 | -1.22449 | 16288 ft | 356 kts | 225° |
| 2026-05-06 08:13 | 51.01627 | -1.25192 | 17280 ft | 360 kts | 226° |
| 2026-05-06 08:13 | 50.99803 | -1.27966 | 18262 ft | 365 kts | 225° |
| 2026-05-06 08:14 | 50.98580 | -1.29826 | 18785 ft | 369 kts | 225° |
| 2026-05-06 08:14 | 50.96690 | -1.32609 | 19599 ft | 374 kts | 221° |
| 2026-05-06 08:14 | 50.94583 | -1.35083 | 20427 ft | 380 kts | 215° |
| 2026-05-06 08:14 | 50.92284 | -1.37186 | 21285 ft | 384 kts | 209° |
| 2026-05-06 08:15 | 50.89883 | -1.39101 | 22100 ft | 389 kts | 208° |
| 2026-05-06 08:15 | 50.87453 | -1.41003 | 22865 ft | 389 kts | 208° |
| 2026-05-06 08:15 | 50.85015 | -1.42915 | 22995 ft | 392 kts | 208° |
| 2026-05-06 08:15 | 50.82576 | -1.44841 | 22993 ft | 391 kts | 208° |
| 2026-05-06 08:16 | 50.80148 | -1.46769 | 22995 ft | 390 kts | 208° |
| 2026-05-06 08:16 | 50.77727 | -1.48696 | 22993 ft | 389 kts | 208° |
| 2026-05-06 08:16 | 50.75322 | -1.50610 | 22995 ft | 389 kts | 208° |
| 2026-05-06 08:16 | 50.73398 | -1.52140 | 22996 ft | 389 kts | 208° |
| 2026-05-06 08:17 | 50.70977 | -1.54059 | 22996 ft | 389 kts | 208° |
| 2026-05-06 08:17 | 50.68552 | -1.55976 | 22996 ft | 389 kts | 208° |
| 2026-05-06 08:17 | 50.66133 | -1.57886 | 22996 ft | 389 kts | 208° |
| 2026-05-06 08:17 | 50.63707 | -1.59801 | 22987 ft | 390 kts | 208° |
| 2026-05-06 08:18 | 50.61283 | -1.61711 | 22985 ft | 390 kts | 208° |
| 2026-05-06 08:18 | 50.58850 | -1.63626 | 22989 ft | 390 kts | 208° |
| 2026-05-06 08:18 | 50.56430 | -1.65531 | 22985 ft | 390 kts | 208° |
| 2026-05-06 08:18 | 50.54001 | -1.67439 | 22985 ft | 390 kts | 208° |
| 2026-05-06 08:19 | 50.51602 | -1.69322 | 23008 ft | 390 kts | 208° |
| 2026-05-06 08:19 | 50.49174 | -1.71225 | 22989 ft | 390 kts | 208° |
| 2026-05-06 08:19 | 50.46745 | -1.73129 | 22989 ft | 390 kts | 208° |
| 2026-05-06 08:19 | 50.44314 | -1.75030 | 22992 ft | 390 kts | 208° |
| 2026-05-06 08:20 | 50.41885 | -1.76928 | 22990 ft | 390 kts | 208° |
| 2026-05-06 08:20 | 50.39453 | -1.78826 | 22979 ft | 390 kts | 208° |
| 2026-05-06 08:20 | 50.38983 | -1.79192 | 22980 ft | 390 kts | 208° |
| 2026-05-06 08:22 | 50.36598 | -1.81051 | 23001 ft | 390 kts | 208° |
| 2026-05-06 08:23 | 50.34169 | -1.82941 | 22978 ft | 390 kts | 208° |
| 2026-05-06 08:23 | 50.31745 | -1.84828 | 22999 ft | 389 kts | 208° |
| 2026-05-06 08:23 | 50.29316 | -1.86714 | 22980 ft | 389 kts | 208° |
| 2026-05-06 08:23 | 50.26890 | -1.88596 | 22997 ft | 389 kts | 208° |
| 2026-05-06 08:24 | 50.24462 | -1.90478 | 22981 ft | 389 kts | 208° |
| 2026-05-06 08:24 | 50.22038 | -1.92355 | 22996 ft | 389 kts | 208° |
| 2026-05-06 08:24 | 50.19612 | -1.94230 | 22981 ft | 389 kts | 208° |
| 2026-05-06 08:24 | 50.17183 | -1.96106 | 22973 ft | 389 kts | 208° |
| 2026-05-06 08:25 | 50.14753 | -1.97981 | 22995 ft | 389 kts | 208° |
| 2026-05-06 08:25 | 50.12325 | -1.99853 | 22990 ft | 389 kts | 208° |
| 2026-05-06 08:25 | 50.10012 | -2.01633 | 22989 ft | 390 kts | 208° |
| 2026-05-06 08:25 | 50.07579 | -2.03504 | 22969 ft | 390 kts | 208° |
| 2026-05-06 08:26 | 50.05180 | -2.05349 | 22994 ft | 390 kts | 208° |
| 2026-05-06 08:26 | 50.02746 | -2.07216 | 22991 ft | 390 kts | 208° |
| 2026-05-06 08:26 | 50.00312 | -2.09081 | 22971 ft | 390 kts | 208° |
| 2026-05-06 08:26 | 49.97908 | -2.10847 | 22960 ft | 377 kts | 202° |
| 2026-05-06 08:27 | 49.95437 | -2.11931 | 22911 ft | 363 kts | 194° |
| 2026-05-06 08:27 | 49.92997 | -2.12699 | 22756 ft | 353 kts | 193° |
| 2026-05-06 08:27 | 49.90601 | -2.13422 | 22366 ft | 349 kts | 193° |
| 2026-05-06 08:27 | 49.88234 | -2.14159 | 22035 ft | 345 kts | 193° |
| 2026-05-06 08:28 | 49.85887 | -2.14918 | 21657 ft | 343 kts | 194° |
| 2026-05-06 08:28 | 49.83565 | -2.15688 | 21295 ft | 340 kts | 194° |
| 2026-05-06 08:28 | 49.81267 | -2.16461 | 20932 ft | 337 kts | 194° |
| 2026-05-06 08:28 | 49.78986 | -2.17233 | 20583 ft | 334 kts | 194° |
| 2026-05-06 08:29 | 49.76727 | -2.17999 | 20237 ft | 331 kts | 194° |
| 2026-05-06 08:29 | 49.74486 | -2.18758 | 19886 ft | 329 kts | 194° |
| 2026-05-06 08:29 | 49.72262 | -2.19510 | 19536 ft | 326 kts | 194° |
| 2026-05-06 08:29 | 49.70052 | -2.20287 | 19194 ft | 324 kts | 196° |
| 2026-05-06 08:30 | 49.67888 | -2.21208 | 18854 ft | 321 kts | 198° |
| 2026-05-06 08:30 | 49.65746 | -2.22181 | 18508 ft | 320 kts | 198° |
| 2026-05-06 08:30 | 49.63614 | -2.23160 | 18149 ft | 319 kts | 198° |
| 2026-05-06 08:30 | 49.61497 | -2.24126 | 17766 ft | 317 kts | 198° |
| 2026-05-06 08:31 | 49.59390 | -2.25079 | 17405 ft | 314 kts | 198° |
| 2026-05-06 08:31 | 49.57299 | -2.26019 | 17060 ft | 312 kts | 198° |
| 2026-05-06 08:31 | 49.55308 | -2.27179 | 16681 ft | 302 kts | 214° |
| 2026-05-06 08:31 | 49.53828 | -2.29355 | 16398 ft | 292 kts | 239° |
| 2026-05-06 08:32 | 49.52890 | -2.32107 | 16156 ft | 290 kts | 248° |
| 2026-05-06 08:32 | 49.52094 | -2.35001 | 15939 ft | 300 kts | 249° |
| 2026-05-06 08:32 | 49.51297 | -2.38033 | 15751 ft | 309 kts | 249° |
| 2026-05-06 08:32 | 49.50498 | -2.41098 | 15552 ft | 306 kts | 249° |
| 2026-05-06 08:33 | 49.49719 | -2.44103 | 15402 ft | 297 kts | 250° |
| 2026-05-06 08:33 | 49.48964 | -2.47010 | 15281 ft | 287 kts | 250° |
| 2026-05-06 08:33 | 49.48240 | -2.49785 | 15190 ft | 281 kts | 250° |
| 2026-05-06 08:33 | 49.47509 | -2.52582 | 14972 ft | 283 kts | 250° |
| 2026-05-06 08:34 | 49.46767 | -2.55422 | 14494 ft | 289 kts | 250° |
| 2026-05-06 08:34 | 49.45258 | -2.61250 | 13552 ft | 296 kts | 250° |
| 2026-05-06 08:34 | 49.44493 | -2.64210 | 13054 ft | 299 kts | 250° |
| 2026-05-06 08:35 | 49.43722 | -2.67181 | 12663 ft | 298 kts | 250° |
| 2026-05-06 08:35 | 49.42958 | -2.70132 | 12331 ft | 295 kts | 249° |
| 2026-05-06 08:35 | 49.42211 | -2.73047 | 12009 ft | 292 kts | 249° |
| 2026-05-06 08:35 | 49.41470 | -2.75953 | 11628 ft | 292 kts | 250° |
| 2026-05-06 08:36 | 49.40730 | -2.78856 | 11258 ft | 291 kts | 250° |
| 2026-05-06 08:36 | 49.39991 | -2.81745 | 10909 ft | 290 kts | 250° |
| 2026-05-06 08:36 | 49.39254 | -2.84611 | 10564 ft | 289 kts | 249° |
| 2026-05-06 08:36 | 49.38381 | -2.87348 | 10089 ft | 288 kts | 233° |
| 2026-05-06 08:37 | 49.36839 | -2.89326 | 9610 ft | 292 kts | 205° |
| 2026-05-06 08:37 | 49.34934 | -2.90080 | 9290 ft | 279 kts | 185° |
| 2026-05-06 08:37 | 49.32994 | -2.90206 | 8805 ft | 280 kts | 180° |
| 2026-05-06 08:37 | 49.31099 | -2.90182 | 8797 ft | 266 kts | 174° |
| 2026-05-06 08:38 | 49.29328 | -2.89311 | 8770 ft | 274 kts | 146° |
| 2026-05-06 08:38 | 49.27989 | -2.87243 | 8779 ft | 275 kts | 120° |
| 2026-05-06 08:38 | 49.27165 | -2.84613 | 8816 ft | 272 kts | 110° |
| 2026-05-06 08:38 | 49.26576 | -2.81930 | 8256 ft | 262 kts | 105° |
| 2026-05-06 08:39 | 49.26085 | -2.79260 | 7499 ft | 258 kts | 104° |
| 2026-05-06 08:39 | 49.25620 | -2.76660 | 6820 ft | 250 kts | 104° |
| 2026-05-06 08:39 | 49.25158 | -2.74104 | 6026 ft | 248 kts | 104° |
| 2026-05-06 08:39 | 49.24688 | -2.71551 | 5637 ft | 246 kts | 104° |
| 2026-05-06 08:40 | 49.24217 | -2.69020 | 5276 ft | 248 kts | 104° |
| 2026-05-06 08:40 | 49.23742 | -2.66491 | 4987 ft | 247 kts | 104° |
| 2026-05-06 08:40 | 49.23266 | -2.63972 | 4718 ft | 245 kts | 105° |
| 2026-05-06 08:40 | 49.22791 | -2.61477 | 4425 ft | 244 kts | 105° |
| 2026-05-06 08:41 | 49.22318 | -2.59002 | 4161 ft | 242 kts | 105° |
| 2026-05-06 08:41 | 49.21844 | -2.56531 | 3908 ft | 240 kts | 105° |
| 2026-05-06 08:41 | 49.21378 | -2.54108 | 3714 ft | 230 kts | 105° |
| 2026-05-06 08:41 | 49.20951 | -2.51892 | 3575 ft | 204 kts | 105° |
| 2026-05-06 08:42 | 49.20572 | -2.49933 | 3505 ft | 183 kts | 105° |
| 2026-05-06 08:42 | 49.20220 | -2.48113 | 3432 ft | 178 kts | 105° |
| 2026-05-06 08:42 | 49.19870 | -2.46303 | 3395 ft | 179 kts | 105° |
| 2026-05-06 08:42 | 49.19518 | -2.44482 | 3225 ft | 180 kts | 105° |
| 2026-05-06 08:43 | 49.19166 | -2.42668 | 3015 ft | 175 kts | 105° |
| 2026-05-06 08:43 | 49.18993 | -2.40874 | 2809 ft | 170 kts | 84° |
| 2026-05-06 08:43 | 49.19172 | -2.39074 | 2626 ft | 173 kts | 82° |
| 2026-05-06 08:43 | 49.19330 | -2.37270 | 2400 ft | 170 kts | 82° |
| 2026-05-06 08:44 | 49.19477 | -2.35497 | 2160 ft | 166 kts | 83° |
| 2026-05-06 08:44 | 49.19622 | -2.33750 | 2043 ft | 167 kts | 83° |
| 2026-05-06 08:44 | 49.19768 | -2.31980 | 1806 ft | 166 kts | 83° |
| 2026-05-06 08:44 | 49.19911 | -2.30257 | 1577 ft | 156 kts | 83° |
| 2026-05-06 08:45 | 49.20037 | -2.28725 | 1372 ft | 135 kts | 83° |
| 2026-05-06 08:45 | 49.20150 | -2.27359 | 1184 ft | 127 kts | 83° |
| 2026-05-06 08:45 | 49.20260 | -2.26033 | 1014 ft | 125 kts | 83° |
| 2026-05-06 08:45 | 49.20369 | -2.24711 | 842 ft | 126 kts | 83° |
| 2026-05-06 08:46 | 49.20479 | -2.23393 | 678 ft | 123 kts | 82° |
| 2026-05-06 08:46 | 49.20596 | -2.22083 | 486 ft | 125 kts | 84° |
| 2026-05-06 08:46 | 49.20703 | -2.20760 | 356 ft | 127 kts | 83° |
| 2026-05-06 08:46 | 49.20795 | -2.19602 | 286 ft | 64 kts | 82° |
| 2026-05-06 08:47 | 49.20817 | -2.19227 | 287 ft | 33 kts | 90° |